createdAt,value
2022-07-29T00:00:17.718Z,3.65
2022-07-29T00:02:46.799Z,3.92
2022-07-29T00:05:14.576Z,4.15
2022-07-29T00:07:42.713Z,3.80
2022-07-29T00:10:10.784Z,4.45
2022-07-29T00:12:38.442Z,3.63
2022-07-29T00:15:08.074Z,4.25
2022-07-29T00:17:35.715Z,4.00
2022-07-29T00:20:05.814Z,4.13
2022-07-29T00:22:33.602Z,4.28
2022-07-29T00:25:01.249Z,3.90
2022-07-29T00:27:28.973Z,4.47
2022-07-29T00:29:56.608Z,4.05
2022-07-29T00:32:24.263Z,4.03
2022-07-29T00:35:09.729Z,4.07
2022-07-29T00:37:38.731Z,3.80
2022-07-29T00:40:07.511Z,5.53
2022-07-29T00:42:43.883Z,4.40
2022-07-29T00:45:12.362Z,4.07
2022-07-29T00:47:40.257Z,3.42
2022-07-29T00:50:10.401Z,4.22
2022-07-29T00:52:40.933Z,3.50
2022-07-29T00:55:12.052Z,4.07
2022-07-29T00:57:40.580Z,3.72
2022-07-29T01:00:11.266Z,4.03
2022-07-29T01:02:39.069Z,4.15
2022-07-29T01:05:07.910Z,4.18
2022-07-29T01:07:36.895Z,4.13
2022-07-29T01:10:08.490Z,4.65
2022-07-29T01:12:37.399Z,3.55
2022-07-29T01:15:07.462Z,4.03
2022-07-29T01:17:41.314Z,4.25
2022-07-29T01:20:31.899Z,4.13
2022-07-29T01:23:24.585Z,4.03
2022-07-29T01:26:20.490Z,3.03
2022-07-29T01:29:00.668Z,3.90
2022-07-29T01:31:53.822Z,4.00
2022-07-29T01:34:33.053Z,4.10
2022-07-29T01:37:09.233Z,3.53
2022-07-29T01:39:40.686Z,3.40
2022-07-29T01:42:15.840Z,3.47
2022-07-29T01:44:55.155Z,3.05
2022-07-29T01:47:27.547Z,3.15
2022-07-29T01:49:58.723Z,3.28
2022-07-29T01:52:35.704Z,3.42
2022-07-29T01:55:10.061Z,3.30
2022-07-29T01:57:39.927Z,3.45
2022-07-29T02:00:11.181Z,3.67
2022-07-29T02:02:41.294Z,4.18
2022-07-29T02:05:11.641Z,3.40
2022-07-29T02:07:42.192Z,3.05
2022-07-29T02:10:12.522Z,2.97
2022-07-29T02:12:42.331Z,3.47
2022-07-29T02:15:13.444Z,3.25
2022-07-29T02:17:45.752Z,3.20
2022-07-29T02:23:07.798Z,3.42
2022-07-29T02:25:38.095Z,3.38
2022-07-29T02:28:07.950Z,3.20
2022-07-29T02:30:41.006Z,2.80
2022-07-29T02:33:10.686Z,3.10
2022-07-29T02:35:39.395Z,3.00
2022-07-29T02:38:24.956Z,3.00
2022-07-29T02:40:54.030Z,3.00
2022-07-29T02:43:24.588Z,3.17
2022-07-29T02:45:56.945Z,3.00
2022-07-29T02:48:33.901Z,3.00
2022-07-29T02:51:09.094Z,2.80
2022-07-29T02:53:43.488Z,2.97
2022-07-29T02:56:15.326Z,3.00
2022-07-29T02:58:48.626Z,3.22
2022-07-29T03:01:23.049Z,2.95
2022-07-29T03:03:52.698Z,3.20
2022-07-29T03:06:31.091Z,3.08
2022-07-29T03:09:12.755Z,3.22
2022-07-29T03:11:46.383Z,2.78
2022-07-29T03:14:20.803Z,3.00
2022-07-29T03:16:51.457Z,3.00
2022-07-29T03:19:19.943Z,3.00
2022-07-29T03:21:47.850Z,3.03
2022-07-29T03:24:27.556Z,2.78
2022-07-29T03:26:56.778Z,2.58
2022-07-29T03:29:24.709Z,3.17
2022-07-29T03:32:03.347Z,2.90
2022-07-29T03:34:32.085Z,3.17
2022-07-29T03:36:59.789Z,2.65
2022-07-29T03:39:31.687Z,3.17
2022-07-29T03:42:02.962Z,3.10
2022-07-29T03:44:32.779Z,2.72
2022-07-29T03:47:03.831Z,2.95
2022-07-29T03:49:32.957Z,3.10
2022-07-29T03:52:00.966Z,2.95
2022-07-29T03:54:28.690Z,3.00
2022-07-29T03:57:00.049Z,3.08
2022-07-29T03:59:29.001Z,2.60
2022-07-29T04:01:58.158Z,2.95
2022-07-29T04:04:28.371Z,2.70
2022-07-29T04:06:56.374Z,2.80
2022-07-29T04:09:24.025Z,3.30
2022-07-29T04:12:02.408Z,2.65
2022-07-29T04:14:31.780Z,2.65
2022-07-29T04:16:59.433Z,2.58
2022-07-29T04:19:28.581Z,2.63
2022-07-29T04:21:56.233Z,2.58
2022-07-29T04:24:24.397Z,2.58
2022-07-29T04:26:52.106Z,2.50
2022-07-29T04:29:20.804Z,3.40
2022-07-29T04:31:48.672Z,2.90
2022-07-29T04:34:16.679Z,2.80
2022-07-29T04:36:46.121Z,2.97
2022-07-29T04:39:16.120Z,2.40
2022-07-29T04:41:45.780Z,2.95
2022-07-29T04:44:14.292Z,2.50
2022-07-29T04:46:42.202Z,2.22
2022-07-29T04:49:09.984Z,2.58
2022-07-29T04:51:37.696Z,2.38
2022-07-29T04:54:07.050Z,2.47
2022-07-29T04:56:34.699Z,2.05
2022-07-29T04:59:02.407Z,2.88
2022-07-29T05:01:30.166Z,2.10
2022-07-29T05:04:00.511Z,2.00
2022-07-29T05:06:28.629Z,2.22
2022-07-29T05:08:56.255Z,1.95
2022-07-29T05:11:30.245Z,2.25
2022-07-29T05:13:58.264Z,1.90
2022-07-29T05:16:25.902Z,2.03
2022-07-29T05:18:53.565Z,2.17
2022-07-29T05:21:21.256Z,2.22
2022-07-29T05:23:48.916Z,1.98
2022-07-29T05:26:16.546Z,2.03
2022-07-29T05:28:45.640Z,1.98
2022-07-29T05:31:15.466Z,1.73
2022-07-29T05:33:43.165Z,2.25
2022-07-29T05:36:11.036Z,1.80
2022-07-29T05:38:38.784Z,2.10
2022-07-29T05:41:07.563Z,2.15
2022-07-29T05:43:35.323Z,2.80
2022-07-29T05:46:04.447Z,2.10
2022-07-29T05:48:32.094Z,2.17
2022-07-29T05:51:00.066Z,2.53
2022-07-29T05:53:27.717Z,2.47
2022-07-29T05:55:55.670Z,2.40
2022-07-29T05:58:23.375Z,2.63
2022-07-29T06:00:51.308Z,2.10
2022-07-29T06:03:20.264Z,2.38
2022-07-29T06:05:48.250Z,2.40
2022-07-29T06:08:15.832Z,2.20
2022-07-29T06:10:43.593Z,2.20
2022-07-29T06:13:11.307Z,1.80
2022-07-29T06:15:39.060Z,1.95
2022-07-29T06:18:10.025Z,2.05
2022-07-29T06:20:40.121Z,2.63
2022-07-29T06:23:07.815Z,1.90
2022-07-29T06:25:36.803Z,2.63
2022-07-29T06:28:05.423Z,2.33
2022-07-29T06:30:33.203Z,2.30
2022-07-29T06:33:01.343Z,2.00
2022-07-29T06:35:38.839Z,2.42
2022-07-29T06:38:34.030Z,2.30
2022-07-29T06:41:03.597Z,1.98
2022-07-29T06:43:34.843Z,1.80
2022-07-29T06:46:04.109Z,2.10
2022-07-29T06:48:32.280Z,1.75
2022-07-29T06:51:00.121Z,1.92
2022-07-29T06:53:29.417Z,1.50
2022-07-29T06:55:57.126Z,1.85
2022-07-29T06:58:24.737Z,1.95
2022-07-29T07:00:52.733Z,1.75
2022-07-29T07:03:21.475Z,1.70
2022-07-29T07:05:49.318Z,1.70
2022-07-29T07:08:17.974Z,1.77
2022-07-29T07:10:47.699Z,1.95
2022-07-29T07:13:18.091Z,1.73
2022-07-29T07:15:46.274Z,1.67
2022-07-29T07:18:13.838Z,1.50
2022-07-29T07:20:41.521Z,1.38
2022-07-29T07:23:09.131Z,1.67
2022-07-29T07:25:36.722Z,1.73
2022-07-29T07:28:08.243Z,1.60
2022-07-29T07:30:35.917Z,1.40
2022-07-29T07:33:03.537Z,1.80
2022-07-29T07:35:31.485Z,1.52
2022-07-29T07:37:59.383Z,1.40
2022-07-29T07:40:27.578Z,1.67
2022-07-29T07:42:55.493Z,1.45
2022-07-29T07:45:24.705Z,2.03
2022-07-29T07:47:52.473Z,1.65
2022-07-29T07:50:20.155Z,1.85
2022-07-29T07:52:49.721Z,1.35
2022-07-29T07:55:17.876Z,1.40
2022-07-29T07:57:45.902Z,1.55
2022-07-29T08:00:15.451Z,1.63
2022-07-29T08:02:45.998Z,1.40
2022-07-29T08:05:17.886Z,1.52
2022-07-29T08:07:47.590Z,1.70
2022-07-29T08:10:15.641Z,1.30
2022-07-29T08:12:44.429Z,1.50
2022-07-29T08:15:12.134Z,1.20
2022-07-29T08:17:39.768Z,1.60
2022-07-29T08:20:09.370Z,1.33
2022-07-29T08:22:36.999Z,1.40
2022-07-29T08:25:05.053Z,1.58
2022-07-29T08:27:43.304Z,1.25
2022-07-29T08:30:12.373Z,1.35
2022-07-29T08:32:56.137Z,1.50
2022-07-29T08:35:26.447Z,1.45
2022-07-29T08:37:55.096Z,1.90
2022-07-29T08:40:32.217Z,1.85
2022-07-29T08:43:00.929Z,1.55
2022-07-29T08:45:31.458Z,1.67
2022-07-29T08:47:59.185Z,1.35
2022-07-29T08:50:28.133Z,1.55
2022-07-29T08:52:59.738Z,1.52
2022-07-29T08:55:28.450Z,1.10
2022-07-29T08:57:57.477Z,1.40
2022-07-29T09:00:27.134Z,1.58
2022-07-29T09:03:00.148Z,1.15
2022-07-29T09:05:30.130Z,1.13
2022-07-29T09:07:58.331Z,1.45
2022-07-29T09:10:26.195Z,1.35
2022-07-29T09:12:54.250Z,1.65
2022-07-29T09:15:21.924Z,1.50
2022-07-29T09:17:51.076Z,1.20
2022-07-29T09:20:20.266Z,1.17
2022-07-29T09:22:50.424Z,1.20
2022-07-29T09:25:35.568Z,1.38
2022-07-29T09:28:09.838Z,1.20
2022-07-29T09:30:38.442Z,1.23
2022-07-29T09:33:07.123Z,1.40
2022-07-29T09:35:34.716Z,1.40
2022-07-29T09:38:13.518Z,1.13
2022-07-29T09:40:41.486Z,1.23
2022-07-29T09:43:13.364Z,1.25
2022-07-29T09:45:41.523Z,1.10
2022-07-29T09:48:18.268Z,1.48
2022-07-29T09:50:49.340Z,1.27
2022-07-29T09:53:32.762Z,1.52
2022-07-29T09:56:00.442Z,1.08
2022-07-29T09:58:28.045Z,1.60
2022-07-29T10:00:57.514Z,1.10
2022-07-29T10:03:25.833Z,0.95
2022-07-29T10:06:07.814Z,1.00
2022-07-29T10:08:36.933Z,1.25
2022-07-29T10:11:12.781Z,1.27
2022-07-29T10:13:40.971Z,1.02
2022-07-29T10:16:09.476Z,1.38
2022-07-29T10:18:37.544Z,0.80
2022-07-29T10:21:05.555Z,0.90
2022-07-29T10:23:46.393Z,0.93
2022-07-29T10:26:17.726Z,1.20
2022-07-29T10:28:45.455Z,1.13
2022-07-29T10:31:17.658Z,1.20
2022-07-29T10:33:54.700Z,0.93
2022-07-29T10:36:40.221Z,0.90
2022-07-29T10:39:22.857Z,1.15
2022-07-29T10:42:20.104Z,0.95
2022-07-29T10:44:49.700Z,1.25
2022-07-29T10:47:25.722Z,0.90
2022-07-29T10:49:59.172Z,1.23
2022-07-29T10:52:58.548Z,1.60
2022-07-29T10:55:37.573Z,0.90
2022-07-29T10:58:17.891Z,1.08
2022-07-29T11:00:46.721Z,0.90
2022-07-29T11:03:49.219Z,1.13
2022-07-29T11:06:21.726Z,0.95
2022-07-29T11:09:35.093Z,0.80
2022-07-29T11:12:06.527Z,1.48
2022-07-29T11:15:01.538Z,1.17
2022-07-29T11:17:37.413Z,1.10
2022-07-29T11:20:33.761Z,0.88
2022-07-29T11:23:01.806Z,1.10
2022-07-29T11:25:50.221Z,1.20
2022-07-29T11:28:22.868Z,0.93
2022-07-29T11:30:56.162Z,1.08
2022-07-29T11:33:54.501Z,0.88
2022-07-29T11:36:17.760Z,1.48
2022-07-29T11:38:45.499Z,1.08
2022-07-29T11:41:23.753Z,0.98
2022-07-29T11:43:53.121Z,1.42
2022-07-29T11:46:50.711Z,1.45
2022-07-29T11:49:22.276Z,0.80
2022-07-29T11:52:02.578Z,1.05
2022-07-29T11:54:57.205Z,1.20
2022-07-29T11:57:22.479Z,1.08
2022-07-29T11:59:50.806Z,1.20
2022-07-29T12:02:37.313Z,0.85
2022-07-29T12:07:54.298Z,1.23
2022-07-29T12:10:29.821Z,0.98
2022-07-29T12:12:58.492Z,1.20
2022-07-29T12:15:45.909Z,1.13
2022-07-29T12:18:18.678Z,1.08
2022-07-29T12:20:47.683Z,1.10
2022-07-29T12:23:17.380Z,1.23
2022-07-29T12:25:49.930Z,1.30
2022-07-29T12:28:26.403Z,1.40
2022-07-29T12:30:54.854Z,1.27
2022-07-29T12:33:26.360Z,1.33
2022-07-29T12:36:06.721Z,1.13
2022-07-29T12:38:35.732Z,1.23
2022-07-29T12:41:04.735Z,1.35
2022-07-29T12:43:32.782Z,1.50
2022-07-29T12:46:14.870Z,1.10
2022-07-29T12:48:45.442Z,1.20
2022-07-29T12:51:15.649Z,1.25
2022-07-29T12:53:43.445Z,1.15
2022-07-29T12:56:41.784Z,1.10
2022-07-29T12:59:14.432Z,1.60
2022-07-29T13:01:42.196Z,1.00
2022-07-29T13:04:11.484Z,1.23
2022-07-29T13:06:42.693Z,1.13
2022-07-29T13:09:16.257Z,1.23
2022-07-29T13:11:48.635Z,1.15
2022-07-29T13:14:32.169Z,1.27
2022-07-29T13:17:06.893Z,1.45
2022-07-29T13:19:38.783Z,1.40
2022-07-29T13:22:07.061Z,1.38
2022-07-29T13:24:35.357Z,1.30
2022-07-29T13:27:05.652Z,1.73
2022-07-29T13:29:34.103Z,1.23
2022-07-29T13:32:01.882Z,1.75
2022-07-29T13:34:29.642Z,1.60
2022-07-29T13:36:58.851Z,1.27
2022-07-29T13:39:26.516Z,1.45
2022-07-29T13:41:54.482Z,1.50
2022-07-29T13:44:24.175Z,1.58
2022-07-29T13:46:51.883Z,1.35
2022-07-29T13:49:19.721Z,1.80
2022-07-29T13:51:47.772Z,1.52
2022-07-29T13:54:17.151Z,1.50
2022-07-29T13:56:44.897Z,1.63
2022-07-29T13:59:14.651Z,1.40
2022-07-29T14:01:43.087Z,1.20
2022-07-29T14:04:12.223Z,1.83
2022-07-29T14:06:40.552Z,1.48
2022-07-29T14:09:09.571Z,1.80
2022-07-29T14:11:39.343Z,1.58
2022-07-29T14:14:07.366Z,1.45
2022-07-29T14:16:37.099Z,1.65
2022-07-29T14:19:08.246Z,1.52
2022-07-29T14:21:36.542Z,1.58
2022-07-29T14:24:05.210Z,1.75
2022-07-29T14:26:47.233Z,1.77
2022-07-29T14:29:14.886Z,1.90
2022-07-29T14:31:43.993Z,2.25
2022-07-29T14:34:11.919Z,2.05
2022-07-29T14:36:39.624Z,1.90
2022-07-29T14:39:07.238Z,2.08
2022-07-29T14:41:34.892Z,1.58
2022-07-29T14:44:04.211Z,1.75
2022-07-29T14:46:32.007Z,2.03
2022-07-29T14:48:59.746Z,1.65
2022-07-29T14:51:32.434Z,1.70
2022-07-29T14:54:00.739Z,1.73
2022-07-29T14:56:46.358Z,2.20
2022-07-29T14:59:16.156Z,1.73
2022-07-29T15:01:43.795Z,1.92
2022-07-29T15:04:11.401Z,1.60
2022-07-29T15:06:39.088Z,1.77
2022-07-29T15:09:06.940Z,1.98
2022-07-29T15:11:38.217Z,2.17
2022-07-29T15:14:06.553Z,1.73
2022-07-29T15:16:37.456Z,2.08
2022-07-29T15:19:05.410Z,1.98
2022-07-29T15:21:33.076Z,2.08
2022-07-29T15:24:00.799Z,1.55
2022-07-29T15:26:28.562Z,2.38
2022-07-29T15:28:57.358Z,2.20
2022-07-29T15:31:25.008Z,1.80
2022-07-29T15:33:58.079Z,2.10
2022-07-29T15:36:50.797Z,1.88
2022-07-29T15:39:14.827Z,1.98
2022-07-29T15:41:42.456Z,1.90
2022-07-29T15:44:10.944Z,2.00
2022-07-29T15:46:56.430Z,1.90
2022-07-29T15:49:48.433Z,1.80
2022-07-29T15:52:18.203Z,2.00
2022-07-29T15:54:46.168Z,2.05
2022-07-29T15:57:14.177Z,1.40
2022-07-29T15:59:41.910Z,1.85
2022-07-29T16:02:11.185Z,2.20
2022-07-29T16:04:40.200Z,2.08
2022-07-29T16:07:08.041Z,2.10
2022-07-29T16:09:35.696Z,2.00
2022-07-29T16:12:03.265Z,1.90
2022-07-29T16:14:38.861Z,1.90
2022-07-29T16:17:06.549Z,1.95
2022-07-29T16:19:34.582Z,1.75
2022-07-29T16:22:03.572Z,1.55
2022-07-29T16:24:32.883Z,1.90
2022-07-29T16:27:01.092Z,2.15
2022-07-29T16:29:29.086Z,2.00
2022-07-29T16:31:57.032Z,1.88
2022-07-29T16:34:24.706Z,1.60
2022-07-29T16:36:52.651Z,1.80
2022-07-29T16:39:21.579Z,1.77
2022-07-29T16:41:49.237Z,1.88
2022-07-29T16:44:16.870Z,1.70
2022-07-29T16:46:45.672Z,1.40
2022-07-29T16:49:19.054Z,1.65
2022-07-29T16:51:47.718Z,1.55
2022-07-29T16:54:15.496Z,2.25
2022-07-29T16:56:44.444Z,1.60
2022-07-29T16:59:12.104Z,1.90
2022-07-29T17:01:39.753Z,1.77
2022-07-29T17:04:07.494Z,1.60
2022-07-29T17:06:35.898Z,1.50
2022-07-29T17:09:05.274Z,1.83
2022-07-29T17:11:53.333Z,1.80
2022-07-29T17:14:24.845Z,1.50
2022-07-29T17:17:00.877Z,1.50
2022-07-29T17:19:30.455Z,1.85
2022-07-29T17:22:06.770Z,1.35
2022-07-29T17:24:38.385Z,1.40
2022-07-29T17:27:07.222Z,1.63
2022-07-29T17:29:36.296Z,1.83
2022-07-29T17:32:04.344Z,1.83
2022-07-29T17:34:36.197Z,1.60
2022-07-29T17:37:04.298Z,1.30
2022-07-29T17:39:32.081Z,1.67
2022-07-29T17:42:00.478Z,1.40
2022-07-29T17:44:28.130Z,1.52
2022-07-29T17:46:57.609Z,2.10
2022-07-29T17:49:25.463Z,1.70
2022-07-29T17:51:55.479Z,1.40
2022-07-29T17:54:28.194Z,1.50
2022-07-29T17:56:56.302Z,1.50
2022-07-29T17:59:24.185Z,1.65
2022-07-29T18:01:52.331Z,1.73
2022-07-29T18:04:23.369Z,1.30
2022-07-29T18:06:51.286Z,1.50
2022-07-29T18:09:19.006Z,1.70
2022-07-29T18:11:47.511Z,1.90
2022-07-29T18:14:15.274Z,1.52
2022-07-29T18:16:42.962Z,1.70
2022-07-29T18:19:10.629Z,1.48
2022-07-29T18:21:51.344Z,1.65
2022-07-29T18:24:22.498Z,1.35
2022-07-29T18:26:50.070Z,1.40
2022-07-29T18:29:17.705Z,1.40
2022-07-29T18:31:45.347Z,1.70
2022-07-29T18:34:13.017Z,1.73
2022-07-29T18:36:41.995Z,1.63
2022-07-29T18:39:09.680Z,1.67
2022-07-29T18:41:50.275Z,1.45
2022-07-29T18:44:18.892Z,1.38
2022-07-29T18:46:57.488Z,1.65
2022-07-29T18:49:25.836Z,1.63
2022-07-29T18:51:56.756Z,2.30
2022-07-29T18:54:24.635Z,2.20
2022-07-29T18:56:52.972Z,1.67
2022-07-29T18:59:20.596Z,2.13
2022-07-29T19:01:48.837Z,1.80
2022-07-29T19:04:17.095Z,1.98
2022-07-29T19:06:44.730Z,2.33
2022-07-29T19:09:13.919Z,2.10
2022-07-29T19:11:41.892Z,1.60
2022-07-29T19:14:09.620Z,2.00
2022-07-29T19:16:37.203Z,1.70
2022-07-29T19:19:05.875Z,2.33
2022-07-29T19:21:33.510Z,1.90
2022-07-29T19:24:06.545Z,2.00
2022-07-29T19:26:42.000Z,1.70
2022-07-29T19:29:09.631Z,2.50
2022-07-29T19:31:37.240Z,2.45
2022-07-29T19:34:04.995Z,2.05
2022-07-29T19:36:32.765Z,2.05
2022-07-29T19:39:00.539Z,2.40
2022-07-29T19:41:28.555Z,2.30
2022-07-29T19:43:57.714Z,2.00
2022-07-29T19:46:28.723Z,2.00
2022-07-29T19:48:57.028Z,2.38
2022-07-29T19:51:25.064Z,2.20
2022-07-29T19:53:52.768Z,2.22
2022-07-29T19:56:20.511Z,1.92
2022-07-29T19:58:48.669Z,2.10
2022-07-29T20:01:17.763Z,1.60
2022-07-29T20:03:46.525Z,2.60
2022-07-29T20:06:14.202Z,1.70
2022-07-29T20:08:42.962Z,1.90
2022-07-29T20:11:10.577Z,1.52
2022-07-29T20:13:38.231Z,2.05
2022-07-29T20:16:08.297Z,1.80
2022-07-29T20:18:37.499Z,2.00
2022-07-29T20:21:05.216Z,1.90
2022-07-29T20:23:33.707Z,2.20
2022-07-29T20:26:01.437Z,1.38
2022-07-29T20:28:29.061Z,2.03
2022-07-29T20:30:56.834Z,1.85
2022-07-29T20:33:24.554Z,2.03
2022-07-29T20:35:53.636Z,1.75
2022-07-29T20:38:21.342Z,1.50
2022-07-29T20:40:50.661Z,2.05
2022-07-29T20:43:18.407Z,1.92
2022-07-29T20:45:46.594Z,1.52
2022-07-29T20:48:14.401Z,1.60
2022-07-29T20:50:42.646Z,1.50
2022-07-29T20:53:11.836Z,1.83
2022-07-29T20:55:39.508Z,2.20
2022-07-29T20:58:07.150Z,1.70
2022-07-29T21:00:35.052Z,1.92
2022-07-29T21:03:02.727Z,1.63
2022-07-29T21:05:30.394Z,1.60
2022-07-29T21:07:58.374Z,1.70
2022-07-29T21:10:28.359Z,1.77
2022-07-29T21:12:55.981Z,1.77
2022-07-29T21:15:24.022Z,1.77
2022-07-29T21:17:59.575Z,2.08
2022-07-29T21:20:27.783Z,1.75
2022-07-29T21:22:55.818Z,2.10
2022-07-29T21:25:23.773Z,1.58
2022-07-29T21:28:10.704Z,1.55
2022-07-29T21:30:38.445Z,1.70
2022-07-29T21:33:06.107Z,1.63
2022-07-29T21:36:07.331Z,1.73
2022-07-29T21:38:21.465Z,1.70
2022-07-29T21:40:51.807Z,1.80
2022-07-29T21:43:21.024Z,2.05
2022-07-29T21:45:50.220Z,1.55
2022-07-29T21:48:18.294Z,1.40
2022-07-29T21:50:46.836Z,1.70
2022-07-29T21:53:15.857Z,1.67
2022-07-29T21:55:44.035Z,1.70
2022-07-29T21:58:12.503Z,1.70
2022-07-29T22:00:41.970Z,1.52
2022-07-29T22:03:09.800Z,1.55
2022-07-29T22:05:37.565Z,1.70
2022-07-29T22:08:05.896Z,2.22
2022-07-29T22:10:33.571Z,1.90
2022-07-29T22:13:02.580Z,1.60
2022-07-29T22:15:31.007Z,1.92
2022-07-29T22:18:01.550Z,1.67
2022-07-29T22:20:29.206Z,1.65
2022-07-29T22:22:57.108Z,2.65
2022-07-29T22:25:24.795Z,1.88
2022-07-29T22:27:52.528Z,1.90
2022-07-29T22:30:20.120Z,2.00
2022-07-29T22:32:48.062Z,2.17
2022-07-29T22:35:17.630Z,1.67
2022-07-29T22:37:45.281Z,1.60
2022-07-29T22:40:13.204Z,1.70
2022-07-29T22:42:41.131Z,1.73
2022-07-29T22:45:10.610Z,2.00
2022-07-29T22:47:46.162Z,2.15
2022-07-29T22:50:17.938Z,1.73
2022-07-29T22:52:46.034Z,1.80
2022-07-29T22:55:14.070Z,1.83
2022-07-29T22:57:41.858Z,2.10
2022-07-29T23:00:11.137Z,1.60
2022-07-29T23:02:40.131Z,1.67
2022-07-29T23:05:09.313Z,1.73
2022-07-29T23:07:38.682Z,2.05
2022-07-29T23:10:07.392Z,1.77
2022-07-29T23:12:35.017Z,2.00
2022-07-29T23:15:02.681Z,1.95
2022-07-29T23:17:32.226Z,1.80
2022-07-29T23:20:06.430Z,1.63
2022-07-29T23:22:34.129Z,1.55
2022-07-29T23:25:03.153Z,2.08
2022-07-29T23:27:30.841Z,1.77
2022-07-29T23:29:58.752Z,1.83
2022-07-29T23:32:26.530Z,1.55
2022-07-29T23:34:54.414Z,1.75
2022-07-29T23:37:22.038Z,1.65
2022-07-29T23:39:49.655Z,1.85
2022-07-29T23:42:18.707Z,2.05
2022-07-29T23:44:46.358Z,1.70
2022-07-29T23:47:14.192Z,1.58
2022-07-29T23:49:41.824Z,1.75
2022-07-29T23:52:09.506Z,1.80
2022-07-29T23:54:37.102Z,1.75
2022-07-29T23:57:05.011Z,2.03
2022-07-29T23:59:33.936Z,1.80
